sensor_id;sensor_type;location;lat;lon;timestamp;P1;durP1;ratioP1;P2;durP2;ratioP2
80957;SDS011;70419;42.700;23.316;2023-09-30T00:00:59;18.33;;;7.65;;
80957;SDS011;70419;42.700;23.316;2023-09-30T00:03:25;17.50;;;7.80;;
80957;SDS011;70419;42.700;23.316;2023-09-30T00:05:51;14.52;;;7.13;;
80957;SDS011;70419;42.700;23.316;2023-09-30T00:08:17;15.00;;;7.57;;
80957;SDS011;70419;42.700;23.316;2023-09-30T00:10:42;14.85;;;7.03;;
80957;SDS011;70419;42.700;23.316;2023-09-30T00:13:08;11.02;;;7.38;;
80957;SDS011;70419;42.700;23.316;2023-09-30T00:15:34;11.07;;;6.30;;
80957;SDS011;70419;42.700;23.316;2023-09-30T00:18:00;12.98;;;6.63;;
80957;SDS011;70419;42.700;23.316;2023-09-30T00:20:26;15.93;;;7.55;;
80957;SDS011;70419;42.700;23.316;2023-09-30T00:22:53;22.23;;;8.02;;
80957;SDS011;70419;42.700;23.316;2023-09-30T00:25:19;17.42;;;7.55;;
80957;SDS011;70419;42.700;23.316;2023-09-30T00:27:48;14.20;;;7.05;;
80957;SDS011;70419;42.700;23.316;2023-09-30T00:30:14;16.27;;;7.45;;
80957;SDS011;70419;42.700;23.316;2023-09-30T00:32:40;16.67;;;6.78;;
80957;SDS011;70419;42.700;23.316;2023-09-30T00:35:06;13.90;;;6.80;;
80957;SDS011;70419;42.700;23.316;2023-09-30T00:37:39;20.98;;;6.47;;
80957;SDS011;70419;42.700;23.316;2023-09-30T00:40:06;14.60;;;6.78;;
80957;SDS011;70419;42.700;23.316;2023-09-30T00:42:37;17.30;;;6.30;;
80957;SDS011;70419;42.700;23.316;2023-09-30T00:45:03;16.45;;;6.68;;
80957;SDS011;70419;42.700;23.316;2023-09-30T00:47:30;13.55;;;6.45;;
80957;SDS011;70419;42.700;23.316;2023-09-30T00:49:56;19.20;;;6.47;;
80957;SDS011;70419;42.700;23.316;2023-09-30T00:52:23;15.52;;;6.68;;
80957;SDS011;70419;42.700;23.316;2023-09-30T00:54:49;18.15;;;6.30;;
80957;SDS011;70419;42.700;23.316;2023-09-30T00:57:17;24.70;;;7.22;;
80957;SDS011;70419;42.700;23.316;2023-09-30T00:59:45;16.27;;;7.30;;
80957;SDS011;70419;42.700;23.316;2023-09-30T01:02:13;17.88;;;6.97;;
80957;SDS011;70419;42.700;23.316;2023-09-30T01:04:39;18.85;;;6.30;;
80957;SDS011;70419;42.700;23.316;2023-09-30T01:07:05;13.88;;;5.93;;
80957;SDS011;70419;42.700;23.316;2023-09-30T01:09:31;15.98;;;6.30;;
80957;SDS011;70419;42.700;23.316;2023-09-30T01:11:58;10.82;;;6.22;;
80957;SDS011;70419;42.700;23.316;2023-09-30T01:14:27;11.30;;;6.20;;
80957;SDS011;70419;42.700;23.316;2023-09-30T01:16:55;15.60;;;6.07;;
80957;SDS011;70419;42.700;23.316;2023-09-30T01:19:21;13.45;;;6.22;;
80957;SDS011;70419;42.700;23.316;2023-09-30T01:21:53;11.45;;;5.95;;
80957;SDS011;70419;42.700;23.316;2023-09-30T01:24:28;10.55;;;5.85;;
80957;SDS011;70419;42.700;23.316;2023-09-30T01:26:55;9.48;;;5.90;;
80957;SDS011;70419;42.700;23.316;2023-09-30T01:29:21;12.32;;;5.78;;
80957;SDS011;70419;42.700;23.316;2023-09-30T01:31:48;17.80;;;6.00;;
80957;SDS011;70419;42.700;23.316;2023-09-30T01:34:14;16.10;;;6.03;;
80957;SDS011;70419;42.700;23.316;2023-09-30T01:36:44;13.68;;;6.00;;
80957;SDS011;70419;42.700;23.316;2023-09-30T01:39:10;15.67;;;6.47;;
80957;SDS011;70419;42.700;23.316;2023-09-30T01:41:37;14.20;;;6.65;;
80957;SDS011;70419;42.700;23.316;2023-09-30T01:44:06;14.15;;;6.82;;
80957;SDS011;70419;42.700;23.316;2023-09-30T01:46:32;16.70;;;6.13;;
80957;SDS011;70419;42.700;23.316;2023-09-30T01:48:58;15.05;;;6.88;;
80957;SDS011;70419;42.700;23.316;2023-09-30T01:51:24;13.10;;;6.90;;
80957;SDS011;70419;42.700;23.316;2023-09-30T01:53:50;17.20;;;6.43;;
80957;SDS011;70419;42.700;23.316;2023-09-30T01:56:16;13.13;;;6.55;;
80957;SDS011;70419;42.700;23.316;2023-09-30T01:58:41;16.60;;;7.22;;
80957;SDS011;70419;42.700;23.316;2023-09-30T02:01:08;15.25;;;7.18;;
80957;SDS011;70419;42.700;23.316;2023-09-30T02:03:34;14.95;;;6.93;;
80957;SDS011;70419;42.700;23.316;2023-09-30T02:06:00;14.27;;;7.88;;
80957;SDS011;70419;42.700;23.316;2023-09-30T02:08:26;15.68;;;6.18;;
80957;SDS011;70419;42.700;23.316;2023-09-30T02:10:51;13.63;;;6.38;;
80957;SDS011;70419;42.700;23.316;2023-09-30T02:13:17;15.10;;;6.30;;
80957;SDS011;70419;42.700;23.316;2023-09-30T02:15:43;13.38;;;6.40;;
80957;SDS011;70419;42.700;23.316;2023-09-30T02:18:09;19.55;;;6.18;;
80957;SDS011;70419;42.700;23.316;2023-09-30T02:20:36;17.30;;;6.53;;
80957;SDS011;70419;42.700;23.316;2023-09-30T02:23:05;16.08;;;6.03;;
80957;SDS011;70419;42.700;23.316;2023-09-30T02:25:32;13.55;;;6.18;;
80957;SDS011;70419;42.700;23.316;2023-09-30T02:27:58;14.40;;;6.07;;
80957;SDS011;70419;42.700;23.316;2023-09-30T02:30:25;12.75;;;5.82;;
80957;SDS011;70419;42.700;23.316;2023-09-30T02:32:52;10.85;;;6.03;;
80957;SDS011;70419;42.700;23.316;2023-09-30T02:35:18;11.93;;;5.63;;
80957;SDS011;70419;42.700;23.316;2023-09-30T02:37:45;13.77;;;6.32;;
80957;SDS011;70419;42.700;23.316;2023-09-30T02:40:11;17.70;;;7.22;;
80957;SDS011;70419;42.700;23.316;2023-09-30T02:42:40;11.43;;;6.13;;
80957;SDS011;70419;42.700;23.316;2023-09-30T02:45:06;13.10;;;7.00;;
80957;SDS011;70419;42.700;23.316;2023-09-30T02:47:36;11.93;;;6.22;;
80957;SDS011;70419;42.700;23.316;2023-09-30T02:52:30;14.38;;;7.97;;
80957;SDS011;70419;42.700;23.316;2023-09-30T02:54:56;13.35;;;6.00;;
80957;SDS011;70419;42.700;23.316;2023-09-30T02:57:23;17.23;;;6.22;;
80957;SDS011;70419;42.700;23.316;2023-09-30T02:59:51;15.85;;;7.38;;
80957;SDS011;70419;42.700;23.316;2023-09-30T03:02:19;17.63;;;7.22;;
80957;SDS011;70419;42.700;23.316;2023-09-30T03:04:48;14.55;;;7.50;;
80957;SDS011;70419;42.700;23.316;2023-09-30T03:07:16;24.20;;;9.18;;
80957;SDS011;70419;42.700;23.316;2023-09-30T03:12:12;18.05;;;9.82;;
80957;SDS011;70419;42.700;23.316;2023-09-30T03:14:39;22.23;;;13.25;;
80957;SDS011;70419;42.700;23.316;2023-09-30T03:17:05;31.38;;;20.40;;
80957;SDS011;70419;42.700;23.316;2023-09-30T03:19:36;29.52;;;20.00;;
80957;SDS011;70419;42.700;23.316;2023-09-30T03:22:02;32.80;;;20.38;;
80957;SDS011;70419;42.700;23.316;2023-09-30T03:24:30;32.78;;;20.67;;
80957;SDS011;70419;42.700;23.316;2023-09-30T03:26:56;16.38;;;8.05;;
80957;SDS011;70419;42.700;23.316;2023-09-30T03:29:23;19.85;;;7.57;;
80957;SDS011;70419;42.700;23.316;2023-09-30T03:31:48;14.60;;;6.70;;
80957;SDS011;70419;42.700;23.316;2023-09-30T03:34:14;13.27;;;8.20;;
80957;SDS011;70419;42.700;23.316;2023-09-30T03:36:41;17.08;;;7.25;;
80957;SDS011;70419;42.700;23.316;2023-09-30T03:39:08;16.88;;;8.07;;
80957;SDS011;70419;42.700;23.316;2023-09-30T03:41:34;16.52;;;8.85;;
80957;SDS011;70419;42.700;23.316;2023-09-30T03:44:02;20.13;;;11.18;;
80957;SDS011;70419;42.700;23.316;2023-09-30T03:46:28;14.77;;;8.75;;
80957;SDS011;70419;42.700;23.316;2023-09-30T03:48:55;15.75;;;7.95;;
80957;SDS011;70419;42.700;23.316;2023-09-30T03:51:21;21.48;;;8.55;;
80957;SDS011;70419;42.700;23.316;2023-09-30T03:53:50;20.60;;;8.43;;
80957;SDS011;70419;42.700;23.316;2023-09-30T03:56:16;33.05;;;8.30;;
80957;SDS011;70419;42.700;23.316;2023-09-30T03:58:43;17.95;;;7.45;;
80957;SDS011;70419;42.700;23.316;2023-09-30T04:01:13;17.77;;;7.25;;
80957;SDS011;70419;42.700;23.316;2023-09-30T04:03:39;17.20;;;7.63;;
80957;SDS011;70419;42.700;23.316;2023-09-30T04:06:06;18.80;;;7.05;;
80957;SDS011;70419;42.700;23.316;2023-09-30T04:08:32;14.85;;;7.75;;
80957;SDS011;70419;42.700;23.316;2023-09-30T04:11:03;15.60;;;7.45;;
80957;SDS011;70419;42.700;23.316;2023-09-30T04:13:30;13.85;;;8.32;;
80957;SDS011;70419;42.700;23.316;2023-09-30T04:15:56;18.85;;;7.45;;
80957;SDS011;70419;42.700;23.316;2023-09-30T04:18:25;13.88;;;6.68;;
80957;SDS011;70419;42.700;23.316;2023-09-30T04:20:53;14.75;;;7.03;;
80957;SDS011;70419;42.700;23.316;2023-09-30T04:23:19;20.90;;;7.45;;
80957;SDS011;70419;42.700;23.316;2023-09-30T04:25:45;16.40;;;6.32;;
80957;SDS011;70419;42.700;23.316;2023-09-30T04:28:14;12.32;;;5.75;;
80957;SDS011;70419;42.700;23.316;2023-09-30T04:30:41;12.88;;;6.35;;
80957;SDS011;70419;42.700;23.316;2023-09-30T04:33:07;11.82;;;5.88;;
80957;SDS011;70419;42.700;23.316;2023-09-30T04:35:35;10.60;;;5.85;;
80957;SDS011;70419;42.700;23.316;2023-09-30T04:38:02;9.32;;;5.68;;
80957;SDS011;70419;42.700;23.316;2023-09-30T04:43:52;17.13;;;6.22;;
80957;SDS011;70419;42.700;23.316;2023-09-30T04:49:36;12.40;;;6.03;;
80957;SDS011;70419;42.700;23.316;2023-09-30T04:52:02;9.85;;;5.68;;
80957;SDS011;70419;42.700;23.316;2023-09-30T04:54:30;14.23;;;6.47;;
80957;SDS011;70419;42.700;23.316;2023-09-30T04:56:56;12.05;;;5.90;;
80957;SDS011;70419;42.700;23.316;2023-09-30T04:59:21;13.18;;;5.07;;
80957;SDS011;70419;42.700;23.316;2023-09-30T05:01:51;12.20;;;5.25;;
80957;SDS011;70419;42.700;23.316;2023-09-30T05:04:17;11.52;;;5.70;;
80957;SDS011;70419;42.700;23.316;2023-09-30T05:06:43;20.30;;;6.18;;
80957;SDS011;70419;42.700;23.316;2023-09-30T05:09:09;15.38;;;5.90;;
80957;SDS011;70419;42.700;23.316;2023-09-30T05:11:35;11.43;;;6.28;;
80957;SDS011;70419;42.700;23.316;2023-09-30T05:14:00;12.57;;;5.20;;
80957;SDS011;70419;42.700;23.316;2023-09-30T05:16:26;10.38;;;5.53;;
80957;SDS011;70419;42.700;23.316;2023-09-30T05:18:53;13.48;;;5.88;;
80957;SDS011;70419;42.700;23.316;2023-09-30T05:21:18;12.07;;;5.40;;
80957;SDS011;70419;42.700;23.316;2023-09-30T05:23:46;14.63;;;5.55;;
80957;SDS011;70419;42.700;23.316;2023-09-30T05:26:12;11.52;;;5.25;;
80957;SDS011;70419;42.700;23.316;2023-09-30T05:28:38;15.13;;;6.40;;
80957;SDS011;70419;42.700;23.316;2023-09-30T05:31:04;18.63;;;6.55;;
80957;SDS011;70419;42.700;23.316;2023-09-30T05:33:31;11.38;;;6.43;;
80957;SDS011;70419;42.700;23.316;2023-09-30T05:35:57;13.48;;;6.72;;
80957;SDS011;70419;42.700;23.316;2023-09-30T05:38:23;16.25;;;6.25;;
80957;SDS011;70419;42.700;23.316;2023-09-30T05:40:49;19.15;;;7.55;;
80957;SDS011;70419;42.700;23.316;2023-09-30T05:43:15;13.10;;;6.45;;
80957;SDS011;70419;42.700;23.316;2023-09-30T05:45:41;21.13;;;6.93;;
80957;SDS011;70419;42.700;23.316;2023-09-30T05:48:15;21.52;;;7.55;;
80957;SDS011;70419;42.700;23.316;2023-09-30T05:50:41;23.13;;;6.70;;
80957;SDS011;70419;42.700;23.316;2023-09-30T05:53:08;15.98;;;7.70;;
80957;SDS011;70419;42.700;23.316;2023-09-30T05:55:35;19.23;;;6.63;;
80957;SDS011;70419;42.700;23.316;2023-09-30T05:58:02;17.20;;;6.43;;
80957;SDS011;70419;42.700;23.316;2023-09-30T06:00:28;19.27;;;7.40;;
80957;SDS011;70419;42.700;23.316;2023-09-30T06:02:56;22.88;;;7.72;;
80957;SDS011;70419;42.700;23.316;2023-09-30T06:05:22;15.10;;;7.18;;
80957;SDS011;70419;42.700;23.316;2023-09-30T06:07:49;14.20;;;6.68;;
80957;SDS011;70419;42.700;23.316;2023-09-30T06:10:15;20.20;;;7.15;;
80957;SDS011;70419;42.700;23.316;2023-09-30T06:12:41;14.65;;;6.03;;
80957;SDS011;70419;42.700;23.316;2023-09-30T06:15:08;15.77;;;6.50;;
80957;SDS011;70419;42.700;23.316;2023-09-30T06:17:38;17.58;;;6.53;;
80957;SDS011;70419;42.700;23.316;2023-09-30T06:20:05;10.55;;;6.18;;
80957;SDS011;70419;42.700;23.316;2023-09-30T06:22:34;16.35;;;6.47;;
80957;SDS011;70419;42.700;23.316;2023-09-30T06:25:01;18.50;;;7.18;;
80957;SDS011;70419;42.700;23.316;2023-09-30T06:27:29;16.58;;;5.97;;
80957;SDS011;70419;42.700;23.316;2023-09-30T06:29:54;13.20;;;6.07;;
80957;SDS011;70419;42.700;23.316;2023-09-30T06:32:20;11.60;;;6.32;;
80957;SDS011;70419;42.700;23.316;2023-09-30T06:34:46;17.05;;;7.10;;
80957;SDS011;70419;42.700;23.316;2023-09-30T06:37:12;16.00;;;6.15;;
80957;SDS011;70419;42.700;23.316;2023-09-30T06:39:40;19.33;;;7.05;;
80957;SDS011;70419;42.700;23.316;2023-09-30T06:42:06;12.25;;;6.53;;
80957;SDS011;70419;42.700;23.316;2023-09-30T06:44:32;16.27;;;6.85;;
80957;SDS011;70419;42.700;23.316;2023-09-30T06:46:58;19.88;;;6.90;;
80957;SDS011;70419;42.700;23.316;2023-09-30T06:49:24;15.07;;;6.43;;
80957;SDS011;70419;42.700;23.316;2023-09-30T06:51:50;11.80;;;6.65;;
80957;SDS011;70419;42.700;23.316;2023-09-30T06:54:15;19.70;;;7.18;;
80957;SDS011;70419;42.700;23.316;2023-09-30T06:56:43;19.27;;;7.10;;
80957;SDS011;70419;42.700;23.316;2023-09-30T06:59:09;16.75;;;7.15;;
80957;SDS011;70419;42.700;23.316;2023-09-30T07:01:35;14.90;;;6.70;;
80957;SDS011;70419;42.700;23.316;2023-09-30T07:04:01;9.88;;;5.63;;
80957;SDS011;70419;42.700;23.316;2023-09-30T07:06:28;18.38;;;7.03;;
80957;SDS011;70419;42.700;23.316;2023-09-30T07:08:55;13.98;;;5.93;;
80957;SDS011;70419;42.700;23.316;2023-09-30T07:11:30;16.40;;;6.28;;
80957;SDS011;70419;42.700;23.316;2023-09-30T07:13:59;17.87;;;6.90;;
80957;SDS011;70419;42.700;23.316;2023-09-30T07:16:26;13.10;;;5.88;;
80957;SDS011;70419;42.700;23.316;2023-09-30T07:18:52;17.23;;;6.90;;
80957;SDS011;70419;42.700;23.316;2023-09-30T07:21:17;21.33;;;6.65;;
80957;SDS011;70419;42.700;23.316;2023-09-30T07:23:43;17.55;;;7.28;;
80957;SDS011;70419;42.700;23.316;2023-09-30T07:26:09;27.23;;;7.00;;
80957;SDS011;70419;42.700;23.316;2023-09-30T07:28:35;12.10;;;6.05;;
80957;SDS011;70419;42.700;23.316;2023-09-30T07:31:01;19.65;;;6.05;;
80957;SDS011;70419;42.700;23.316;2023-09-30T07:33:30;17.63;;;6.50;;
80957;SDS011;70419;42.700;23.316;2023-09-30T07:35:56;14.18;;;6.57;;
80957;SDS011;70419;42.700;23.316;2023-09-30T07:38:27;12.73;;;6.40;;
80957;SDS011;70419;42.700;23.316;2023-09-30T07:40:53;18.85;;;7.32;;
80957;SDS011;70419;42.700;23.316;2023-09-30T07:43:19;15.15;;;6.50;;
80957;SDS011;70419;42.700;23.316;2023-09-30T07:45:45;13.15;;;6.53;;
80957;SDS011;70419;42.700;23.316;2023-09-30T07:48:11;10.50;;;5.88;;
80957;SDS011;70419;42.700;23.316;2023-09-30T07:50:38;10.52;;;5.88;;
80957;SDS011;70419;42.700;23.316;2023-09-30T07:53:04;10.00;;;5.93;;
80957;SDS011;70419;42.700;23.316;2023-09-30T07:55:29;9.43;;;4.75;;
80957;SDS011;70419;42.700;23.316;2023-09-30T07:57:56;17.42;;;5.85;;
80957;SDS011;70419;42.700;23.316;2023-09-30T08:00:26;11.52;;;5.35;;
80957;SDS011;70419;42.700;23.316;2023-09-30T08:02:54;16.35;;;5.82;;
80957;SDS011;70419;42.700;23.316;2023-09-30T08:05:20;16.02;;;5.80;;
80957;SDS011;70419;42.700;23.316;2023-09-30T08:07:46;15.68;;;5.93;;
80957;SDS011;70419;42.700;23.316;2023-09-30T08:10:12;11.18;;;5.72;;
80957;SDS011;70419;42.700;23.316;2023-09-30T08:12:43;11.77;;;4.90;;
80957;SDS011;70419;42.700;23.316;2023-09-30T08:15:20;12.05;;;5.72;;
80957;SDS011;70419;42.700;23.316;2023-09-30T08:17:45;19.73;;;5.88;;
80957;SDS011;70419;42.700;23.316;2023-09-30T08:20:11;11.20;;;5.00;;
80957;SDS011;70419;42.700;23.316;2023-09-30T08:22:39;15.70;;;5.28;;
80957;SDS011;70419;42.700;23.316;2023-09-30T08:25:06;15.05;;;5.50;;
80957;SDS011;70419;42.700;23.316;2023-09-30T08:27:32;9.88;;;5.78;;
80957;SDS011;70419;42.700;23.316;2023-09-30T08:29:58;11.40;;;5.80;;
80957;SDS011;70419;42.700;23.316;2023-09-30T08:32:24;11.48;;;6.00;;
80957;SDS011;70419;42.700;23.316;2023-09-30T08:34:50;13.90;;;6.15;;
80957;SDS011;70419;42.700;23.316;2023-09-30T08:37:16;19.48;;;6.05;;
80957;SDS011;70419;42.700;23.316;2023-09-30T08:39:43;16.38;;;6.65;;
80957;SDS011;70419;42.700;23.316;2023-09-30T08:42:10;10.07;;;5.85;;
80957;SDS011;70419;42.700;23.316;2023-09-30T08:44:40;10.60;;;5.60;;
80957;SDS011;70419;42.700;23.316;2023-09-30T08:47:06;10.75;;;6.13;;
80957;SDS011;70419;42.700;23.316;2023-09-30T08:49:38;24.20;;;6.82;;
80957;SDS011;70419;42.700;23.316;2023-09-30T08:52:05;15.65;;;6.78;;
80957;SDS011;70419;42.700;23.316;2023-09-30T08:54:31;13.32;;;7.13;;
80957;SDS011;70419;42.700;23.316;2023-09-30T08:56:57;18.58;;;7.65;;
80957;SDS011;70419;42.700;23.316;2023-09-30T08:59:25;11.63;;;8.02;;
80957;SDS011;70419;42.700;23.316;2023-09-30T09:01:51;16.33;;;7.85;;
80957;SDS011;70419;42.700;23.316;2023-09-30T09:04:18;11.57;;;7.17;;
80957;SDS011;70419;42.700;23.316;2023-09-30T09:06:43;15.48;;;8.05;;
80957;SDS011;70419;42.700;23.316;2023-09-30T09:09:17;11.43;;;7.55;;
80957;SDS011;70419;42.700;23.316;2023-09-30T09:11:45;16.50;;;7.40;;
80957;SDS011;70419;42.700;23.316;2023-09-30T09:14:11;17.42;;;7.50;;
80957;SDS011;70419;42.700;23.316;2023-09-30T09:16:49;15.35;;;7.45;;
80957;SDS011;70419;42.700;23.316;2023-09-30T09:19:18;15.65;;;7.28;;
80957;SDS011;70419;42.700;23.316;2023-09-30T09:21:59;16.10;;;7.38;;
80957;SDS011;70419;42.700;23.316;2023-09-30T09:24:27;14.30;;;7.80;;
80957;SDS011;70419;42.700;23.316;2023-09-30T09:26:53;18.45;;;7.95;;
80957;SDS011;70419;42.700;23.316;2023-09-30T09:29:32;13.93;;;6.53;;
80957;SDS011;70419;42.700;23.316;2023-09-30T09:32:12;14.25;;;6.80;;
80957;SDS011;70419;42.700;23.316;2023-09-30T09:34:42;10.68;;;6.03;;
80957;SDS011;70419;42.700;23.316;2023-09-30T09:37:16;11.10;;;6.80;;
80957;SDS011;70419;42.700;23.316;2023-09-30T09:39:53;19.45;;;6.10;;
80957;SDS011;70419;42.700;23.316;2023-09-30T09:42:26;13.93;;;6.43;;
80957;SDS011;70419;42.700;23.316;2023-09-30T09:45:03;11.77;;;6.28;;
80957;SDS011;70419;42.700;23.316;2023-09-30T09:47:31;12.35;;;6.38;;
80957;SDS011;70419;42.700;23.316;2023-09-30T09:49:58;11.48;;;5.95;;
80957;SDS011;70419;42.700;23.316;2023-09-30T09:52:25;13.48;;;5.85;;
80957;SDS011;70419;42.700;23.316;2023-09-30T09:54:53;13.88;;;6.85;;
80957;SDS011;70419;42.700;23.316;2023-09-30T09:57:19;15.48;;;5.82;;
80957;SDS011;70419;42.700;23.316;2023-09-30T09:59:47;12.05;;;5.20;;
80957;SDS011;70419;42.700;23.316;2023-09-30T10:02:13;9.23;;;5.38;;
80957;SDS011;70419;42.700;23.316;2023-09-30T10:04:43;12.98;;;6.18;;
80957;SDS011;70419;42.700;23.316;2023-09-30T10:07:20;13.48;;;5.78;;
80957;SDS011;70419;42.700;23.316;2023-09-30T10:09:51;11.90;;;5.25;;
80957;SDS011;70419;42.700;23.316;2023-09-30T10:12:19;7.40;;;4.88;;
80957;SDS011;70419;42.700;23.316;2023-09-30T10:14:49;16.70;;;5.22;;
80957;SDS011;70419;42.700;23.316;2023-09-30T10:17:16;15.48;;;5.45;;
80957;SDS011;70419;42.700;23.316;2023-09-30T10:22:31;6.70;;;4.90;;
80957;SDS011;70419;42.700;23.316;2023-09-30T10:24:58;14.37;;;5.13;;
80957;SDS011;70419;42.700;23.316;2023-09-30T10:30:06;11.45;;;4.53;;
80957;SDS011;70419;42.700;23.316;2023-09-30T10:35:18;12.77;;;4.40;;
80957;SDS011;70419;42.700;23.316;2023-09-30T10:40:51;15.93;;;4.35;;
80957;SDS011;70419;42.700;23.316;2023-09-30T10:43:30;13.15;;;5.38;;
80957;SDS011;70419;42.700;23.316;2023-09-30T10:45:59;5.88;;;4.43;;
80957;SDS011;70419;42.700;23.316;2023-09-30T10:48:33;10.38;;;5.30;;
80957;SDS011;70419;42.700;23.316;2023-09-30T10:51:16;8.38;;;4.88;;
80957;SDS011;70419;42.700;23.316;2023-09-30T10:53:50;18.13;;;6.13;;
80957;SDS011;70419;42.700;23.316;2023-09-30T10:56:17;8.98;;;5.05;;
80957;SDS011;70419;42.700;23.316;2023-09-30T10:58:51;10.25;;;5.75;;
80957;SDS011;70419;42.700;23.316;2023-09-30T11:01:21;7.60;;;5.18;;
80957;SDS011;70419;42.700;23.316;2023-09-30T11:03:49;9.27;;;4.82;;
80957;SDS011;70419;42.700;23.316;2023-09-30T11:06:23;10.63;;;4.68;;
80957;SDS011;70419;42.700;23.316;2023-09-30T11:08:53;11.63;;;4.93;;
80957;SDS011;70419;42.700;23.316;2023-09-30T11:11:31;10.88;;;5.35;;
80957;SDS011;70419;42.700;23.316;2023-09-30T11:13:59;7.40;;;5.30;;
80957;SDS011;70419;42.700;23.316;2023-09-30T11:16:25;7.57;;;5.15;;
80957;SDS011;70419;42.700;23.316;2023-09-30T11:18:54;10.03;;;5.57;;
80957;SDS011;70419;42.700;23.316;2023-09-30T11:21:22;10.13;;;6.50;;
80957;SDS011;70419;42.700;23.316;2023-09-30T11:23:48;10.15;;;5.55;;
80957;SDS011;70419;42.700;23.316;2023-09-30T11:26:13;6.87;;;5.03;;
80957;SDS011;70419;42.700;23.316;2023-09-30T11:28:41;10.80;;;5.80;;
80957;SDS011;70419;42.700;23.316;2023-09-30T11:31:09;9.13;;;5.55;;
80957;SDS011;70419;42.700;23.316;2023-09-30T11:33:54;7.72;;;6.30;;
80957;SDS011;70419;42.700;23.316;2023-09-30T11:36:22;9.85;;;5.70;;
80957;SDS011;70419;42.700;23.316;2023-09-30T11:38:49;8.05;;;5.88;;
80957;SDS011;70419;42.700;23.316;2023-09-30T11:41:20;11.23;;;5.35;;
80957;SDS011;70419;42.700;23.316;2023-09-30T11:46:46;10.05;;;5.80;;
80957;SDS011;70419;42.700;23.316;2023-09-30T11:49:23;7.18;;;5.30;;
80957;SDS011;70419;42.700;23.316;2023-09-30T11:52:09;6.57;;;5.22;;
80957;SDS011;70419;42.700;23.316;2023-09-30T11:54:40;8.55;;;4.95;;
80957;SDS011;70419;42.700;23.316;2023-09-30T11:57:08;7.50;;;5.00;;
80957;SDS011;70419;42.700;23.316;2023-09-30T11:59:40;9.95;;;5.70;;
80957;SDS011;70419;42.700;23.316;2023-09-30T12:02:11;13.55;;;4.93;;
80957;SDS011;70419;42.700;23.316;2023-09-30T12:04:37;9.48;;;5.32;;
80957;SDS011;70419;42.700;23.316;2023-09-30T12:07:04;9.75;;;5.43;;
80957;SDS011;70419;42.700;23.316;2023-09-30T12:09:32;9.27;;;4.88;;
80957;SDS011;70419;42.700;23.316;2023-09-30T12:12:06;10.90;;;5.70;;
80957;SDS011;70419;42.700;23.316;2023-09-30T12:14:35;8.93;;;4.75;;
80957;SDS011;70419;42.700;23.316;2023-09-30T12:17:01;9.32;;;5.10;;
80957;SDS011;70419;42.700;23.316;2023-09-30T12:19:28;7.90;;;4.82;;
80957;SDS011;70419;42.700;23.316;2023-09-30T12:21:54;10.07;;;4.90;;
80957;SDS011;70419;42.700;23.316;2023-09-30T12:24:22;9.85;;;4.63;;
80957;SDS011;70419;42.700;23.316;2023-09-30T12:26:49;8.45;;;4.50;;
80957;SDS011;70419;42.700;23.316;2023-09-30T12:29:17;8.43;;;4.40;;
80957;SDS011;70419;42.700;23.316;2023-09-30T12:34:16;10.45;;;4.22;;
80957;SDS011;70419;42.700;23.316;2023-09-30T12:36:43;10.85;;;4.63;;
80957;SDS011;70419;42.700;23.316;2023-09-30T12:39:10;11.48;;;4.82;;
80957;SDS011;70419;42.700;23.316;2023-09-30T12:41:42;11.35;;;5.35;;
80957;SDS011;70419;42.700;23.316;2023-09-30T12:44:09;10.10;;;5.32;;
80957;SDS011;70419;42.700;23.316;2023-09-30T12:46:37;9.57;;;4.72;;
80957;SDS011;70419;42.700;23.316;2023-09-30T12:49:06;9.95;;;4.90;;
80957;SDS011;70419;42.700;23.316;2023-09-30T12:51:33;11.93;;;5.20;;
80957;SDS011;70419;42.700;23.316;2023-09-30T12:54:00;10.57;;;5.22;;
80957;SDS011;70419;42.700;23.316;2023-09-30T12:56:26;11.87;;;4.47;;
80957;SDS011;70419;42.700;23.316;2023-09-30T12:58:55;14.70;;;5.03;;
80957;SDS011;70419;42.700;23.316;2023-09-30T13:01:22;11.30;;;5.32;;
80957;SDS011;70419;42.700;23.316;2023-09-30T13:03:49;14.25;;;5.97;;
80957;SDS011;70419;42.700;23.316;2023-09-30T13:06:15;12.73;;;4.72;;
80957;SDS011;70419;42.700;23.316;2023-09-30T13:08:42;12.38;;;4.68;;
80957;SDS011;70419;42.700;23.316;2023-09-30T13:11:08;13.60;;;5.82;;
80957;SDS011;70419;42.700;23.316;2023-09-30T13:13:35;14.50;;;6.97;;
80957;SDS011;70419;42.700;23.316;2023-09-30T13:16:01;12.25;;;5.40;;
80957;SDS011;70419;42.700;23.316;2023-09-30T13:18:30;14.82;;;6.32;;
80957;SDS011;70419;42.700;23.316;2023-09-30T13:20:57;12.15;;;5.50;;
80957;SDS011;70419;42.700;23.316;2023-09-30T13:23:23;9.18;;;4.95;;
80957;SDS011;70419;42.700;23.316;2023-09-30T13:25:49;7.68;;;4.70;;
80957;SDS011;70419;42.700;23.316;2023-09-30T13:28:15;9.82;;;5.65;;
80957;SDS011;70419;42.700;23.316;2023-09-30T13:30:41;12.18;;;6.18;;
80957;SDS011;70419;42.700;23.316;2023-09-30T13:33:07;13.48;;;6.00;;
80957;SDS011;70419;42.700;23.316;2023-09-30T13:35:33;10.50;;;4.97;;
80957;SDS011;70419;42.700;23.316;2023-09-30T13:38:01;17.50;;;5.20;;
80957;SDS011;70419;42.700;23.316;2023-09-30T13:40:28;9.30;;;5.50;;
80957;SDS011;70419;42.700;23.316;2023-09-30T13:42:54;8.30;;;5.70;;
80957;SDS011;70419;42.700;23.316;2023-09-30T13:45:21;8.38;;;5.38;;
80957;SDS011;70419;42.700;23.316;2023-09-30T13:47:47;9.55;;;4.45;;
80957;SDS011;70419;42.700;23.316;2023-09-30T13:50:12;13.25;;;4.90;;
80957;SDS011;70419;42.700;23.316;2023-09-30T13:52:38;13.95;;;4.60;;
80957;SDS011;70419;42.700;23.316;2023-09-30T13:55:05;10.45;;;5.47;;
80957;SDS011;70419;42.700;23.316;2023-09-30T13:57:31;12.25;;;5.20;;
80957;SDS011;70419;42.700;23.316;2023-09-30T13:59:59;14.18;;;5.32;;
80957;SDS011;70419;42.700;23.316;2023-09-30T14:02:25;8.60;;;4.97;;
80957;SDS011;70419;42.700;23.316;2023-09-30T14:04:51;9.65;;;4.68;;
80957;SDS011;70419;42.700;23.316;2023-09-30T14:07:20;7.93;;;4.90;;
80957;SDS011;70419;42.700;23.316;2023-09-30T14:09:46;8.30;;;5.10;;
80957;SDS011;70419;42.700;23.316;2023-09-30T14:12:12;14.52;;;4.38;;
80957;SDS011;70419;42.700;23.316;2023-09-30T14:14:38;8.82;;;4.95;;
80957;SDS011;70419;42.700;23.316;2023-09-30T14:17:04;15.07;;;5.53;;
80957;SDS011;70419;42.700;23.316;2023-09-30T14:19:36;10.55;;;5.28;;
80957;SDS011;70419;42.700;23.316;2023-09-30T14:22:03;12.90;;;4.82;;
80957;SDS011;70419;42.700;23.316;2023-09-30T14:24:30;6.55;;;4.30;;
80957;SDS011;70419;42.700;23.316;2023-09-30T14:26:58;15.80;;;4.60;;
80957;SDS011;70419;42.700;23.316;2023-09-30T14:29:24;12.07;;;6.00;;
80957;SDS011;70419;42.700;23.316;2023-09-30T14:31:50;15.05;;;5.35;;
80957;SDS011;70419;42.700;23.316;2023-09-30T14:34:16;13.27;;;5.57;;
80957;SDS011;70419;42.700;23.316;2023-09-30T14:36:43;11.57;;;4.55;;
80957;SDS011;70419;42.700;23.316;2023-09-30T14:39:09;13.70;;;4.68;;
80957;SDS011;70419;42.700;23.316;2023-09-30T14:41:35;9.98;;;4.93;;
80957;SDS011;70419;42.700;23.316;2023-09-30T14:44:01;13.30;;;4.90;;
80957;SDS011;70419;42.700;23.316;2023-09-30T14:46:36;11.35;;;5.25;;
80957;SDS011;70419;42.700;23.316;2023-09-30T14:49:03;12.68;;;5.60;;
80957;SDS011;70419;42.700;23.316;2023-09-30T14:51:31;15.47;;;5.10;;
80957;SDS011;70419;42.700;23.316;2023-09-30T14:53:57;11.27;;;5.13;;